Enter the Airport ICAO Code

Search by Airport or City

Current Weather

EIDW | Dublin Airport

Dublin, Ireland

Last Update 19 Minutes Ago

Partly Cloudy Sky

Temperature of 03 ºC

Light to Moderate Winds from SouthWest

Temperature

03 ºC

Dew Point Temperature

01 ºC

Relative Humidity

86.69 %

Wind Direction

SouthWest (230º, Ranging from 200º to 290º)

Wind Velocity

17 km/h (09 kt)

Gusts

None

Visibility

Greater than 10 Kilometers

Sea Level Pressure

0993 hPa (Hectopascals)

Layers of Clouds

5% to 30% of Sky Covered from 457 mts (1500 ft) Above Ground Level.

30% to 60% of Sky Covered from 6096 mts (20000 ft) Above Ground Level.

METAR EIDW 160700Z 23009KT 200V290 9999 FEW015 SCT200 03/01 Q0993 NOSIG

Weather Forecast

EIDW | Dublin Airport

Dublin, Ireland

Forecast valid for the next 23 Hours

From now on it is expected:

Partly Cloudy Sky

Moderate Winds from SouthWest

In 21 hours it is expected the begining of 2 hours with intermittent periods of:

Mist

Maximum Temperature

No Data

Minimum Temperature

No Data

TAF EIDW 160500Z 1606/1706 23010KT 9999 FEW010 SCT016 PROB30 TEMPO 1704/1706 3000 BR